Thunder Bay Airport
CYQT : now visible

Airfield :











YOU CAN JOIN US ON...

 
LOGIN :

Register | Disclaimer

   EN    FR    IT 

 









Legend :    VFR   Marginal VFR   IFR   Intensive IFR   Very Intensive IFR
Visi :
Ceiling :
>= 8 km
>= 3000ft
5 to 8 km
1000 to 3000 ft
1500m to 5 km
500 to 1000 ft
800 to 1500m
200 to 500 ft
< 800m
< 200 ft
Symbols :   Thunderstorms  Fog  Heavy snow  Heavy precipitations  Wind > 20 kt







- Airport Elevation : 653 ft
- IATA code : YQT


CYQT - Thunder Bay

CURRENT METAR :
  • 201500Z 11008KT 4SM -DZ BR OVC003 16/16 A3014 RMK ST8 SLP212 DENSITY ALT 700FT

EXPIRED METARs :
  • 201341Z 08008KT 12SM OVC005 16/16 A3015 RMK ST8 BR SLP213 DENSITY ALT 700FT
  • 201300Z 00000KT 12SM OVC007 13/13 A3014 RMK SC8 BR SLP212

TAF AMD TAF CYQT
Valid from the 20 at 14:00 until the 21 at 02:00 UTC


201448Z 2014/2102 VRB03KT P6SM OVC004
TEMPO 2014/2018 5SM -DZ BR SCT004 OVC015
BECMG 2014/2016 11007KT
FM201800 10008KT P6SM FEW015 BKN025
TEMPO 2018/2023 BKN015 BKN025
FM202300 10010KT P6SM BKN007 OVC015 RMK NXT FCST BY 202000Z
No reported NOTAMs for that airfield.



MET'MAP, your aeronautical weather chart ! - Copyright ORBIFLY December 2007 - Disclaimer

ORBIFLY MET'MAP TEAM :

Programming & Development : Alexandra Zaïnal
Concept & Development : Baudouin d'Aumeries
Co-Development & Prog : Marc-Olivier Méhu
Technical & hardware support : Manuel Goepfert

Contact : metmap@orbifly.com




SOURCES & CREDITS :

   NOAA       Earth
Advisory